Ely, Nevada Weather observations

Data are for observation ending at time listed.
 Day   Time    Ave.   Ave.  Ave.  Vector   Max.   Stn.    Total    Solar   Ave.  
  of    of     Air    Rel.  Wind   Wind    Wind   Baro.  Precip.   Rad.    Soil  
Year   Day     Temp.  Hum.  Speed  Dir.    Gust   Pres.                    Temp. 
2017   (PST)    F      %     mph   deg.    mph     mb.     in.     W/m2     F   
------------------------------------------------------------------------------
  35   21:10   37.2    80    8.4   190     10.9   809.6    0.00       0    32.0
  35   21:20   37.2    80    8.4   181     11.3   809.7    0.00       0    32.0
  35   21:30   36.8    81    7.4   172     10.4   809.7    0.00       0    32.0
  35   21:40   36.9    81    6.9   167      9.6   809.8    0.00       0    31.9
  35   21:50   36.7    81    8.8   160     11.6   809.6    0.00       1    32.0
  35   22:00   36.2    82    9.2   164     13.1   809.7    0.00       1    32.0
  35   22:10   35.6    84    8.4   180     10.6   809.9    0.00       1    31.9
  35   22:20   36.2    82    7.1   168     10.7   809.8    0.00       1    31.9
  35   22:30   36.6    80    7.2   177      9.7   809.9    0.00       1    31.9
  35   22:40   36.0    81    7.3   178      9.8   809.9    0.00       0    31.9
  35   22:50   35.1    83    7.8   185      9.6   809.9    0.00       0    32.0
  35   23:00   35.1    83    7.2   189      9.6   809.9    0.00       0    32.0
  35   23:10   34.4    85    7.6   190      9.2   810.0    0.00       0    32.0
  35   23:20   35.0    84    8.7   190     10.4   810.1    0.00       1    32.0
  35   23:30   35.0    84    8.5   181     10.8   810.1    0.00       1    31.9
  35   23:40   37.1    78    7.6   169     11.0   810.0    0.00       1    31.9
  35   23:50   37.0    78    6.0   172      8.6   810.0    0.00       1    31.9
  36    0:00   35.8    81    8.8   158     12.2   809.8    0.00       0    32.0
  36    0:10   35.5    82   10.4   150     12.2   809.7    0.00       0    32.0
  36    0:20   36.0    80    8.1   164     12.8   809.7    0.00       0    32.0
  36    0:30   35.0    82    8.9   190     10.4   809.6    0.00       0    31.9
  36    0:40   34.5    84   10.0   199     11.5   809.6    0.00       0    31.9
  36    0:50   34.1    84    9.4   202     10.9   809.7    0.00       0    31.9
  36    1:00   34.0    85   10.3   195     11.6   809.7    0.00       0    32.0
  36    1:10   34.3    84    9.3   192     11.3   809.8    0.00       0    31.9
  36    1:20   33.4    85    8.5   205      9.9   809.9    0.00       0    31.9
  36    1:30   34.6    84    7.9   186     10.2   810.0    0.00       0    32.0
  36    1:40   36.6    78    7.4   186     10.3   810.0    0.00       0    31.9
  36    1:50   37.0    76    5.8   192      8.7   810.0    0.00       0    31.9
  36    2:00   34.3    83    5.6   197      7.5   810.0    0.00       0    32.0
  36    2:10   34.7    82    6.1   185      8.0   810.1    0.00       1    31.9
  36    2:20   33.5    84    6.2   184      7.8   810.1    0.00       0    32.0
  36    2:30   32.6    85    5.1   193      7.9   810.1    0.00       0    31.9
  36    2:40   31.6    88    4.0    69      6.9   810.1    0.00       0    32.0
  36    2:50   31.8    88    2.4   103      5.0   810.0    0.00       0    31.9
  36    3:00   31.7    87    2.8   110      4.4   810.0    0.00       0    32.0
  36    3:10   31.1    88    2.7    98      5.7   809.9    0.00       1    32.0
  36    3:20   30.4    88    4.5   115      7.2   809.8    0.00       0    31.9
  36    3:30   29.9    90    4.7    96      7.9   809.8    0.00       0    32.0
  36    3:40   30.2    90    4.6    70      6.1   810.0    0.00       0    32.0
  36    3:50   31.2    88    4.1    87      6.4   810.0    0.00       0    31.9
  36    4:00   31.3    86    2.6   109      4.2   809.9    0.00       0    32.0
  36    4:10   30.4    88    4.1   118      5.6   809.8    0.00       0    31.9
  36    4:20   29.8    88    6.0   134      8.3   809.7    0.00       0    31.9
  36    4:30   29.2    90    7.6   132      8.6   809.4    0.00       0    31.9
  36    4:40   29.9    89    8.0   142      8.8   809.4    0.00       0    32.0
  36    4:50   30.8    87    7.5   157      9.1   809.5    0.00       0    31.9
  36    5:00   31.2    85    5.6   157      7.7   809.5    0.00       0    31.9
  36    5:10   29.3    87    6.4   148      7.2   809.5    0.00       0    31.9
  36    5:20   27.8    89    3.6   126      6.9   809.6    0.00       1    32.0
  36    5:30   27.6    91    1.3   332      2.8   809.7    0.00       0    32.0
  36    5:40   28.2    91    3.1   126      4.5   809.6    0.00       1    31.9
  36    5:50   27.6    90    3.2    88      5.8   809.5    0.00       0    31.9
  36    6:00   27.5    91    4.1   104      7.3   809.5    0.00       0    31.9
  36    6:10   27.4    92    8.4   148     10.0   809.3    0.00       0    31.9
  36    6:20   28.1    90    7.6   151      9.1   809.3    0.00       0    31.9
  36    6:30   26.7    91    3.6   121      6.3   809.4    0.00       1    31.9
  36    6:40   26.3    92    0.5   170      3.2   809.5    0.00       6    31.9
  36    6:50   25.9    92    4.7   137      7.5   809.5    0.00       7    31.9
  36    7:00   25.9    92    5.6   136      7.2   809.6    0.00      19    31.9
  36    7:10   26.9    92    7.2   134      9.1   809.7    0.00      20    31.9
  36    7:20   27.5    91    6.8   145      8.8   809.7    0.00      33    31.9
  36    7:30   28.0    92    9.2   139     12.5   809.6    0.00      46    31.9
  36    7:40   29.2    93   10.1   150     14.2   809.7    0.00     106    31.8
  36    7:50   30.3    92    9.2   160     12.7   809.9    0.00     159    31.8
  36    8:00   30.5    92    9.5   152     13.4   809.9    0.00     108    31.8
  36    8:10   30.1    93   10.5   141     13.9   810.0    0.00     176    31.8
  36    8:20   30.0    94   10.7   139     13.5   810.1    0.00     125    31.9
  36    8:30   30.4    95    7.4   143     11.9   810.2    0.00     125    31.9
  36    8:40   30.9    95    5.5   155      8.8   810.1    0.00     137    31.9
  36    8:50   31.6    94    7.4   157     13.1   810.1    0.00     162    31.9
  36    9:00   31.9    93    8.3   153     13.0   810.1    0.00     207    31.9
  36    9:10   32.7    92    7.3   149     11.2   810.1    0.00     242    31.9
  36    9:20   33.6    91    6.4   159     10.4   810.0    0.00     319    31.9
  36    9:30   34.6    89    7.4   159     10.8   810.1    0.00     433    31.9
  36    9:40   36.1    85   10.2   143     13.9   810.0    0.00     372    31.8
  36    9:50   36.2    82   10.7   145     14.4   809.9    0.00     320    31.8
  36   10:00   36.7    82    9.9   158     14.5   809.8    0.00     396    31.9
  36   10:10   37.3    81   12.9   156     17.6   809.9    0.00     425    31.9
  36   10:20   38.1    79   11.7   154     15.7   809.9    0.00     465    31.9
  36   10:30   39.1    76    8.8   161     11.8   809.8    0.00     489    31.9
  36   10:40   39.9    73    6.7   161     11.0   809.7    0.00     412    31.9
  36   10:50   40.5    72    5.9   164      9.3   809.6    0.00     392    31.9
  36   11:00   40.8    73    6.6   160      9.8   809.3    0.00     466    31.9
  36   11:10   41.3    72    6.3   168      9.2   809.1    0.00     543    31.9
  36   11:20   42.0    70    6.1   168     10.4   808.9    0.00     608    31.9
  36   11:30   41.9    69   10.0   158     15.8   808.8    0.00     512    31.9
  36   11:40   41.8    71   11.0   134     15.1   808.7    0.00     498    31.9
  36   11:50   41.6    71   12.2   136     17.8   808.6    0.00     481    31.9
  36   12:00   42.1    70   11.6   132     16.5   808.3    0.00     517    31.9
  36   12:10   42.2    68   12.5   138     16.4   808.0    0.00     383    31.9
  36   12:20   42.5    67   12.7   149     16.4   807.8    0.00     427    31.9
  36   12:30   42.7    66   14.1   143     21.0   807.4    0.00     457    31.9
  36   12:40   43.1    66   16.6   146     23.8   807.3    0.00     512    31.9
  36   12:50   43.5    64   17.1   140     22.6   807.0    0.00     548    31.9
  36   13:00   44.3    62   15.9   146     22.1   806.8    0.00     638    31.9
  36   13:10   44.9    60   16.0   149     20.0   806.6    0.00     615    31.9
  36   13:20   44.4    60   14.6   153     18.9   806.4    0.00     506    31.9
  36   13:30   43.9    61   12.4   161     17.2   806.3    0.00     426    31.9
  36   13:40   43.7    63   11.1   155     16.0   806.3    0.00     362    32.0
  36   13:50   43.3    64   11.2   144     16.4   806.1    0.00     241    32.0
  36   14:00   43.0    63   11.1   164     17.2   805.9    0.00     191    32.1
  36   14:10   42.8    64    9.1   163     13.4   805.6    0.00     172    32.2
  36   14:20   43.3    60   12.8   130     18.9   805.5    0.00     158    32.4
  36   14:30   43.2    60   15.0   140     22.1   805.4    0.00     124    32.6
  36   14:40   42.7    60   15.1   133     22.1   805.1    0.00     125    32.9
  36   14:50   43.0    59   14.8   130     21.5   805.0    0.00     132    33.1
  36   15:00   42.9    60   16.6   136     24.7   804.7    0.00     105    33.3
  36   15:10   42.6    61   16.9   147     24.9   804.7    0.00     100    33.4
  36   15:20   41.9    65   12.3   162     19.3   804.6    0.00     106    33.5
  36   15:30   40.9    68   11.9   174     16.1   804.5    0.00      85    33.6
  36   15:40   41.3    65   15.3   146     22.1   804.3    0.00      81    33.6
  36   15:50   41.5    64   18.4   139     26.2   804.3    0.00      78    33.6
  36   16:00   41.2    64   17.7   132     24.9   804.4    0.00      77    33.6
  36   16:10   40.6    65   17.9   136     25.4   804.4    0.00      57    33.6
  36   16:20   40.4    65   17.0   142     23.6   804.4    0.00      47    33.5
  36   16:30   40.5    63   18.7   133     25.5   804.1    0.00      31    33.5
  36   16:40   40.2    64   18.0   139     26.9   804.2    0.00      20    33.4
  36   16:50   40.0    64   15.5   145     21.9   804.3    0.00      16    33.3
  36   17:00   39.8    64   14.3   149     20.0   804.4    0.00       7    33.3
  36   17:10   39.8    64   15.1   145     21.5   804.4    0.00       7    33.2
  36   17:20   39.7    65   15.2   148     24.3   804.4    0.00       3    33.1
  36   17:30   39.6    66   16.7   146     23.1   804.5    0.00       1    33.0
  36   17:40   39.5    67   17.2   149     22.8   804.5    0.00       0    33.0
  36   17:50   39.4    68   14.4   155     19.9   804.4    0.00       1    33.0
  36   18:00   39.7    67   14.5   139     20.9   804.3    0.00       0    32.9
  36   18:10   40.3    65   14.7   123     24.0   804.1    0.00       0    32.9
  36   18:20   40.3    66   17.0   133     25.1   804.3    0.00       1    32.9
  36   18:30   40.1    68   18.1   135     24.6   804.3    0.00       1    32.9
  36   18:40   40.1    69   17.6   123     27.0   804.1    0.00       0    32.9
  36   18:50   40.2    69   16.9   118     24.8   804.0    0.00       0    33.0
  36   19:00   40.2    69   16.7   127     27.5   803.9    0.00       0    33.0
  36   19:10   39.9    71   16.3   140     25.1   803.9    0.00       0    33.0
  36   19:20   39.8    71   16.6   137     23.2   803.6    0.00       0    33.0
  36   19:30   39.9    71   17.5   128     25.1   803.6    0.00       0    33.0
  36   19:40   40.1    71   19.5   119     28.2   803.3    0.00       1    33.0
  36   19:50   39.7    73   18.1   120     28.2   803.2    0.00       1    33.0
  36   20:00   39.2    75   18.8   126     29.9   803.3    0.00       0    33.1
  36   20:10   39.0    75   18.6   129     27.8   803.3    0.00       0    33.0
  36   20:20   39.2    73   19.1   130     29.0   803.3    0.00       0    33.0
  36   20:30   39.3    72   16.9   147     27.1   803.3    0.00       0    33.0
  36   20:40   38.5    75   13.8   160     21.5   803.3    0.00       1    32.9
  36   20:50   37.9    77   12.3   170     21.9   803.1    0.00       0    32.8
  36   21:00   37.8    76   12.3   158     17.8   803.0    0.00       0    32.8

Return to Ely, Nevada graphs page.


Western Regional Climate Center,wrcc@dri.edu